createdAt,value
2018-07-31T00:01:36.181Z,54.65
2018-07-31T00:04:05.361Z,54.39
2018-07-31T00:06:34.473Z,55.20
2018-07-31T00:09:03.913Z,54.53
2018-07-31T00:11:33.116Z,56.26
2018-07-31T00:14:02.237Z,54.88
2018-07-31T00:16:31.397Z,55.59
2018-07-31T00:19:00.498Z,55.35
2018-07-31T00:21:29.577Z,56.73
2018-07-31T00:23:58.682Z,55.54
2018-07-31T00:26:27.756Z,56.21
2018-07-31T00:28:56.873Z,54.61
2018-07-31T00:31:25.963Z,55.20
2018-07-31T00:33:55.053Z,55.54
2018-07-31T00:36:24.137Z,55.89
2018-07-31T00:38:53.244Z,55.24
2018-07-31T00:41:22.345Z,55.74
2018-07-31T00:43:51.447Z,55.77
2018-07-31T00:46:20.545Z,55.38
2018-07-31T00:48:49.637Z,55.65
2018-07-31T00:51:18.757Z,56.95
2018-07-31T00:53:47.871Z,55.66
2018-07-31T00:56:16.993Z,57.26
2018-07-31T00:58:46.113Z,55.87
2018-07-31T01:01:15.225Z,55.97
2018-07-31T01:03:44.308Z,55.68
2018-07-31T01:06:13.421Z,56.88
2018-07-31T01:08:42.562Z,56.77
2018-07-31T01:11:11.661Z,57.87
2018-07-31T01:13:40.885Z,56.86
2018-07-31T01:16:10.033Z,57.24
2018-07-31T01:18:39.120Z,59.00
2018-07-31T01:21:08.273Z,58.08
2018-07-31T01:23:37.365Z,59.04
2018-07-31T01:26:06.449Z,59.29
2018-07-31T01:28:35.541Z,59.89
2018-07-31T01:31:05.772Z,59.19
2018-07-31T01:33:34.881Z,58.95
2018-07-31T01:36:04.026Z,59.72
2018-07-31T01:38:33.212Z,59.02
2018-07-31T01:41:02.310Z,59.77
2018-07-31T01:43:31.398Z,60.43
2018-07-31T01:46:00.581Z,60.27
2018-07-31T01:48:29.593Z,58.98
2018-07-31T01:50:58.677Z,59.17
2018-07-31T01:53:27.777Z,59.74
2018-07-31T01:55:56.893Z,59.98
2018-07-31T01:58:25.977Z,59.57
2018-07-31T02:00:55.081Z,59.39
2018-07-31T02:03:24.175Z,59.74
2018-07-31T02:05:53.286Z,60.60
2018-07-31T02:08:22.365Z,61.46
2018-07-31T02:10:51.497Z,60.17
2018-07-31T02:13:20.680Z,60.72
2018-07-31T02:15:49.785Z,61.90
2018-07-31T02:18:18.885Z,61.05
2018-07-31T02:20:48.005Z,61.48
2018-07-31T02:23:17.109Z,61.78
2018-07-31T02:25:46.218Z,60.96
2018-07-31T02:28:15.376Z,62.14
2018-07-31T02:30:44.443Z,61.06
2018-07-31T02:33:13.521Z,62.56
2018-07-31T02:35:42.653Z,61.50
2018-07-31T02:38:11.725Z,61.90
2018-07-31T02:40:40.817Z,62.19
2018-07-31T02:43:09.933Z,62.76
2018-07-31T02:45:39.023Z,63.33
2018-07-31T02:48:08.125Z,61.89
2018-07-31T02:50:37.205Z,61.38
2018-07-31T02:53:06.330Z,62.58
2018-07-31T02:55:35.442Z,62.32
2018-07-31T02:58:04.656Z,62.30
2018-07-31T03:00:33.689Z,62.46
2018-07-31T03:03:02.821Z,62.64
2018-07-31T03:05:31.934Z,63.49
2018-07-31T03:08:01.084Z,63.53
2018-07-31T03:10:30.125Z,62.40
2018-07-31T03:12:59.265Z,62.51
2018-07-31T03:15:28.348Z,62.40
2018-07-31T03:17:57.424Z,62.30
2018-07-31T03:20:26.526Z,61.55
2018-07-31T03:22:57.187Z,61.45
2018-07-31T03:25:26.269Z,60.78
2018-07-31T03:27:55.369Z,61.19
2018-07-31T03:30:24.461Z,62.29
2018-07-31T03:32:53.557Z,61.79
2018-07-31T03:35:22.644Z,62.02
2018-07-31T03:37:51.728Z,62.69
2018-07-31T03:40:20.820Z,62.61
2018-07-31T03:42:49.933Z,62.21
2018-07-31T03:45:19.040Z,62.53
2018-07-31T03:47:48.137Z,64.26
2018-07-31T03:50:17.265Z,63.65
2018-07-31T03:52:46.414Z,62.78
2018-07-31T03:55:15.533Z,63.10
2018-07-31T03:57:44.637Z,63.19
2018-07-31T04:00:13.753Z,63.09
2018-07-31T04:02:42.858Z,63.54
2018-07-31T04:05:12.033Z,62.92
2018-07-31T04:07:41.136Z,62.32
2018-07-31T04:10:10.218Z,63.43
2018-07-31T04:12:39.353Z,62.80
2018-07-31T04:15:08.468Z,63.31
2018-07-31T04:17:37.601Z,62.75
2018-07-31T04:20:06.785Z,64.20
2018-07-31T04:22:35.868Z,64.11
2018-07-31T04:25:05.041Z,63.01
2018-07-31T04:27:34.185Z,62.84
2018-07-31T04:30:03.430Z,63.37
2018-07-31T04:32:32.549Z,62.57
2018-07-31T04:35:02.836Z,62.51
2018-07-31T04:37:31.954Z,63.37
2018-07-31T04:40:01.049Z,63.51
2018-07-31T04:42:30.261Z,63.18
2018-07-31T04:44:59.456Z,62.72
2018-07-31T04:47:28.556Z,63.25
2018-07-31T04:49:57.629Z,63.32
2018-07-31T04:52:26.845Z,63.69
2018-07-31T04:54:55.997Z,63.42
2018-07-31T04:57:25.109Z,63.58
2018-07-31T04:59:54.201Z,64.69
2018-07-31T05:02:23.365Z,64.12
2018-07-31T05:04:52.498Z,64.43
2018-07-31T05:07:21.609Z,64.76
2018-07-31T05:09:50.693Z,64.27
2018-07-31T05:12:19.879Z,64.50
2018-07-31T05:14:48.985Z,63.63
2018-07-31T05:17:18.114Z,63.93
2018-07-31T05:19:47.242Z,64.61
2018-07-31T05:22:16.349Z,64.80
2018-07-31T05:24:45.445Z,64.77
2018-07-31T05:27:14.552Z,64.88
2018-07-31T05:29:44.021Z,64.47
2018-07-31T05:32:13.133Z,64.27
2018-07-31T05:34:42.337Z,65.84
2018-07-31T05:37:11.437Z,66.42
2018-07-31T05:39:40.529Z,67.12
2018-07-31T05:42:09.657Z,65.54
2018-07-31T05:44:38.748Z,66.61
2018-07-31T05:47:07.841Z,66.10
2018-07-31T05:49:36.925Z,65.69
2018-07-31T05:52:06.081Z,66.17
2018-07-31T05:54:35.165Z,66.08
2018-07-31T05:57:04.281Z,64.57
2018-07-31T05:59:33.372Z,64.25
2018-07-31T06:02:02.521Z,64.64
2018-07-31T06:04:31.644Z,63.35
2018-07-31T06:07:00.740Z,63.79
2018-07-31T06:09:29.926Z,62.56
2018-07-31T06:11:58.989Z,63.08
2018-07-31T06:14:28.074Z,61.25
2018-07-31T06:16:57.181Z,61.43
2018-07-31T06:19:26.273Z,60.79
2018-07-31T06:21:55.381Z,59.10
2018-07-31T06:24:32.481Z,57.60
2018-07-31T06:27:01.643Z,57.10
2018-07-31T06:29:30.696Z,58.09
2018-07-31T06:31:59.773Z,58.22
2018-07-31T06:34:28.888Z,58.72
2018-07-31T06:36:58.057Z,58.50
2018-07-31T06:39:27.172Z,58.68
2018-07-31T06:41:56.289Z,58.59
2018-07-31T06:44:25.394Z,59.50
2018-07-31T06:46:54.605Z,58.98
2018-07-31T06:49:23.719Z,58.14
2018-07-31T06:51:52.778Z,58.95
2018-07-31T06:54:21.886Z,59.90
2018-07-31T06:56:50.997Z,58.95
2018-07-31T06:59:20.109Z,58.47
2018-07-31T07:01:49.209Z,57.15
2018-07-31T07:04:18.308Z,58.60
2018-07-31T07:06:47.790Z,58.27
2018-07-31T07:09:16.969Z,57.69
2018-07-31T07:11:45.997Z,56.75
2018-07-31T07:14:15.144Z,57.24
2018-07-31T07:16:44.256Z,57.10
2018-07-31T07:19:13.377Z,53.75
2018-07-31T07:21:42.516Z,53.67
2018-07-31T07:24:11.699Z,54.56
2018-07-31T07:26:40.825Z,53.27
2018-07-31T07:29:10.173Z,52.47
2018-07-31T07:31:39.347Z,50.50
2018-07-31T07:34:08.801Z,49.66
2018-07-31T07:36:37.921Z,49.32
2018-07-31T07:39:09.878Z,51.18
2018-07-31T07:41:39.033Z,50.24
2018-07-31T07:44:08.537Z,48.65
2018-07-31T07:46:37.644Z,49.78
2018-07-31T07:49:07.031Z,48.73
2018-07-31T07:51:36.175Z,47.47
2018-07-31T07:54:05.359Z,47.13
2018-07-31T07:56:34.423Z,49.39
2018-07-31T07:59:04.557Z,46.95
2018-07-31T08:01:33.665Z,45.73
2018-07-31T08:04:02.903Z,47.21
2018-07-31T08:06:32.014Z,44.60
2018-07-31T08:09:01.102Z,45.44
2018-07-31T08:11:30.217Z,46.14
2018-07-31T08:13:59.297Z,42.22
2018-07-31T08:16:28.411Z,41.78
2018-07-31T08:18:57.572Z,41.17
2018-07-31T08:21:26.749Z,41.91
2018-07-31T08:23:55.845Z,42.20
2018-07-31T08:26:24.962Z,40.81
2018-07-31T08:28:54.099Z,42.20
2018-07-31T08:31:23.206Z,42.20
2018-07-31T08:33:52.301Z,38.95
2018-07-31T08:36:21.425Z,40.13
2018-07-31T08:38:50.615Z,41.89
2018-07-31T08:41:19.796Z,38.76
2018-07-31T08:43:48.896Z,37.79
2018-07-31T08:46:18.075Z,39.45
2018-07-31T08:48:47.231Z,37.68
2018-07-31T08:51:16.378Z,36.97
2018-07-31T08:53:45.417Z,37.29
2018-07-31T08:56:14.528Z,35.94
2018-07-31T08:58:43.711Z,34.75
2018-07-31T09:01:12.820Z,33.61
2018-07-31T09:03:41.924Z,33.68
2018-07-31T09:06:11.025Z,34.68
2018-07-31T09:08:40.165Z,35.19
2018-07-31T09:11:09.331Z,33.02
2018-07-31T09:13:38.457Z,33.91
2018-07-31T09:16:07.595Z,33.04
2018-07-31T09:18:37.189Z,32.54
2018-07-31T09:21:06.294Z,33.39
2018-07-31T09:23:35.405Z,33.21
2018-07-31T09:26:04.578Z,33.39
2018-07-31T09:28:33.707Z,34.42
2018-07-31T09:31:08.143Z,32.29
2018-07-31T09:33:37.102Z,34.97
2018-07-31T09:36:06.312Z,33.12
2018-07-31T09:38:35.418Z,32.61
2018-07-31T09:41:04.592Z,31.73
2018-07-31T09:43:33.727Z,32.44
2018-07-31T09:46:02.858Z,32.85
2018-07-31T09:48:32.096Z,32.29
2018-07-31T09:51:01.436Z,35.05
2018-07-31T09:53:30.562Z,35.42
2018-07-31T09:55:59.720Z,35.50
2018-07-31T09:58:29.877Z,35.52
2018-07-31T10:01:04.328Z,36.71
2018-07-31T10:03:33.429Z,37.05
2018-07-31T10:06:02.526Z,36.44
2018-07-31T10:08:31.641Z,36.03
2018-07-31T10:11:00.753Z,36.18
2018-07-31T10:13:29.957Z,37.12
2018-07-31T10:15:59.093Z,35.64
2018-07-31T10:18:28.193Z,36.90
2018-07-31T10:20:57.440Z,35.42
2018-07-31T10:23:32.790Z,36.80
2018-07-31T10:26:01.933Z,36.06
2018-07-31T10:28:31.009Z,35.00
2018-07-31T10:31:00.223Z,35.13
2018-07-31T10:33:29.221Z,34.38
2018-07-31T10:35:58.356Z,34.79
2018-07-31T10:38:27.498Z,34.84
2018-07-31T10:40:56.630Z,36.35
2018-07-31T10:43:25.788Z,34.60
2018-07-31T10:45:55.006Z,36.07
2018-07-31T10:48:24.188Z,36.92
2018-07-31T10:50:53.326Z,33.63
2018-07-31T10:53:22.512Z,33.83
2018-07-31T10:55:51.624Z,33.32
2018-07-31T10:58:20.797Z,33.01
2018-07-31T11:00:49.897Z,31.91
2018-07-31T11:03:19.045Z,32.45
2018-07-31T11:05:48.141Z,32.36
2018-07-31T11:08:17.225Z,32.71
2018-07-31T11:10:46.320Z,32.76
2018-07-31T11:13:15.440Z,32.81
2018-07-31T11:15:44.549Z,32.41
2018-07-31T11:18:13.680Z,31.88
2018-07-31T11:20:42.792Z,31.53
2018-07-31T11:23:11.884Z,31.51
2018-07-31T11:25:40.989Z,32.29
2018-07-31T11:28:10.129Z,32.20
2018-07-31T11:30:39.213Z,32.07
2018-07-31T11:33:12.770Z,32.42
2018-07-31T11:35:41.988Z,32.92
2018-07-31T11:38:11.137Z,33.22
2018-07-31T11:40:40.263Z,34.32
2018-07-31T11:43:09.349Z,34.89
2018-07-31T11:45:38.513Z,34.18
2018-07-31T11:48:07.709Z,34.42
2018-07-31T11:50:40.385Z,33.79
2018-07-31T11:53:09.473Z,34.83
2018-07-31T11:55:38.604Z,33.71
2018-07-31T11:58:07.709Z,33.49
2018-07-31T12:00:36.837Z,33.58
2018-07-31T12:03:05.924Z,34.49
2018-07-31T12:05:35.021Z,35.06
2018-07-31T12:08:04.178Z,34.57
2018-07-31T12:10:33.429Z,34.69
2018-07-31T12:13:02.525Z,35.04
2018-07-31T12:15:33.658Z,34.89
2018-07-31T12:18:02.785Z,35.29
2018-07-31T12:20:32.988Z,35.18
2018-07-31T12:23:02.101Z,36.46
2018-07-31T12:25:31.254Z,35.92
2018-07-31T12:28:00.355Z,35.76
2018-07-31T12:30:29.449Z,37.27
2018-07-31T12:32:58.651Z,37.08
2018-07-31T12:35:27.782Z,36.29
2018-07-31T12:37:56.965Z,37.13
2018-07-31T12:40:26.434Z,36.60
2018-07-31T12:42:55.566Z,35.72
2018-07-31T12:45:24.701Z,35.80
2018-07-31T12:47:53.867Z,33.75
2018-07-31T12:50:22.985Z,34.12
2018-07-31T12:52:52.146Z,34.40
2018-07-31T12:55:21.277Z,33.75
2018-07-31T12:57:50.417Z,33.77
2018-07-31T13:00:19.561Z,34.05
2018-07-31T13:02:48.709Z,34.75
2018-07-31T13:05:17.795Z,34.42
2018-07-31T13:07:46.913Z,34.77
2018-07-31T13:10:16.053Z,35.68
2018-07-31T13:12:45.281Z,34.82
2018-07-31T13:15:14.446Z,35.86
2018-07-31T13:17:43.611Z,36.37
2018-07-31T13:20:12.744Z,36.10
2018-07-31T13:22:41.827Z,36.44
2018-07-31T13:25:10.981Z,36.11
2018-07-31T13:27:40.122Z,35.96
2018-07-31T13:30:09.345Z,36.48
2018-07-31T13:32:38.456Z,35.84
2018-07-31T13:35:07.617Z,35.79
2018-07-31T13:37:36.789Z,36.51
2018-07-31T13:40:05.985Z,36.32
2018-07-31T13:42:35.108Z,36.72
2018-07-31T13:45:04.220Z,36.52
2018-07-31T13:47:34.181Z,35.98
2018-07-31T13:50:03.310Z,36.17
2018-07-31T13:52:32.445Z,35.72
2018-07-31T13:55:01.695Z,36.42
2018-07-31T13:57:30.821Z,34.38
2018-07-31T14:00:00.000Z,34.55
2018-07-31T14:02:29.146Z,34.90
2018-07-31T14:04:58.325Z,33.95
2018-07-31T14:07:27.497Z,35.01
2018-07-31T14:09:56.652Z,35.24
2018-07-31T14:12:25.873Z,35.48
2018-07-31T14:14:55.000Z,36.33
2018-07-31T14:17:24.162Z,35.88
2018-07-31T14:19:53.250Z,36.20
2018-07-31T14:22:22.361Z,36.65
2018-07-31T14:24:51.489Z,36.33
2018-07-31T14:27:20.581Z,37.03
2018-07-31T14:29:49.661Z,36.53
2018-07-31T14:32:19.037Z,36.65
2018-07-31T14:34:48.133Z,37.17
2018-07-31T14:37:17.285Z,37.71
2018-07-31T14:39:46.424Z,37.14
2018-07-31T14:42:15.696Z,37.70
2018-07-31T14:44:44.793Z,37.95
2018-07-31T14:47:13.946Z,38.16
2018-07-31T14:49:43.108Z,38.12
2018-07-31T14:52:12.245Z,37.59
2018-07-31T14:54:41.396Z,38.44
2018-07-31T14:57:10.533Z,37.41
2018-07-31T14:59:39.628Z,37.63
2018-07-31T15:02:08.763Z,37.54
2018-07-31T15:04:37.857Z,37.43
2018-07-31T15:07:06.997Z,37.50
2018-07-31T15:09:36.092Z,38.38
2018-07-31T15:12:05.190Z,37.81
2018-07-31T15:14:34.304Z,37.58
2018-07-31T15:17:03.437Z,38.73
2018-07-31T15:19:32.545Z,38.30
2018-07-31T15:22:01.634Z,38.05
2018-07-31T15:24:30.789Z,37.28
2018-07-31T15:27:00.040Z,38.50
2018-07-31T15:29:29.188Z,37.66
2018-07-31T15:31:58.385Z,38.15
2018-07-31T15:34:27.621Z,38.02
2018-07-31T15:36:56.709Z,37.58
2018-07-31T15:39:25.881Z,37.60
2018-07-31T15:41:55.062Z,37.21
2018-07-31T15:44:24.201Z,37.49
2018-07-31T15:46:53.296Z,36.26
2018-07-31T15:49:22.376Z,36.37
2018-07-31T15:51:51.568Z,36.83
2018-07-31T15:54:20.613Z,37.82
2018-07-31T15:56:49.725Z,37.16
2018-07-31T15:59:18.833Z,37.03
2018-07-31T16:01:47.920Z,37.55
2018-07-31T16:04:17.046Z,36.58
2018-07-31T16:06:46.163Z,36.73
2018-07-31T16:09:15.369Z,35.67
2018-07-31T16:11:45.572Z,36.14
2018-07-31T16:14:14.656Z,35.59
2018-07-31T16:16:43.825Z,35.53
2018-07-31T16:19:12.995Z,35.19
2018-07-31T16:21:42.086Z,35.08
2018-07-31T16:24:11.228Z,35.67
2018-07-31T16:26:40.313Z,35.66
2018-07-31T16:29:09.440Z,36.24
2018-07-31T16:31:38.774Z,35.86
2018-07-31T16:34:07.916Z,35.02
2018-07-31T16:36:37.053Z,36.10
2018-07-31T16:39:08.383Z,35.67
2018-07-31T16:41:37.491Z,35.90
2018-07-31T16:44:06.589Z,36.08
2018-07-31T16:46:35.700Z,35.05
2018-07-31T16:49:04.813Z,36.45
2018-07-31T16:51:33.950Z,36.00
2018-07-31T16:54:03.045Z,35.34
2018-07-31T16:56:32.157Z,35.63
2018-07-31T16:59:01.301Z,37.03
2018-07-31T17:01:30.422Z,36.71
2018-07-31T17:03:59.592Z,36.14
2018-07-31T17:06:28.724Z,35.78
2018-07-31T17:08:59.113Z,35.10
2018-07-31T17:11:28.785Z,35.07
2018-07-31T17:13:57.909Z,35.80
2018-07-31T17:16:27.145Z,34.56
2018-07-31T17:18:56.471Z,35.12
2018-07-31T17:21:25.645Z,34.92
2018-07-31T17:23:54.788Z,35.03
2018-07-31T17:26:23.893Z,34.33
2018-07-31T17:28:53.002Z,35.48
2018-07-31T17:31:22.104Z,34.82
2018-07-31T17:33:51.238Z,35.07
2018-07-31T17:36:20.341Z,34.70
2018-07-31T17:38:49.424Z,34.59
2018-07-31T17:41:18.529Z,35.75
2018-07-31T17:43:47.618Z,34.93
2018-07-31T17:46:16.751Z,34.95
2018-07-31T17:48:46.338Z,34.78
2018-07-31T17:51:15.433Z,33.95
2018-07-31T17:53:44.556Z,34.43
2018-07-31T17:56:13.661Z,34.93
2018-07-31T17:58:42.789Z,33.72
2018-07-31T18:01:11.885Z,34.84
2018-07-31T18:03:40.993Z,34.46
2018-07-31T18:06:10.067Z,34.49
2018-07-31T18:08:39.777Z,33.86
2018-07-31T18:11:08.890Z,34.20
2018-07-31T18:13:38.013Z,34.99
2018-07-31T18:16:07.109Z,35.23
2018-07-31T18:18:36.493Z,35.01
2018-07-31T18:21:05.600Z,35.12
2018-07-31T18:23:34.762Z,35.24
2018-07-31T18:26:03.789Z,35.56
2018-07-31T18:28:32.893Z,34.99
2018-07-31T18:31:02.011Z,35.40
2018-07-31T18:33:31.105Z,34.48
2018-07-31T18:36:00.217Z,35.79
2018-07-31T18:38:29.410Z,34.93
2018-07-31T18:40:59.486Z,34.74
2018-07-31T18:43:28.572Z,35.30
2018-07-31T18:45:57.644Z,35.05
2018-07-31T18:48:26.745Z,35.39
2018-07-31T18:50:56.109Z,36.02
2018-07-31T18:53:25.284Z,35.36
2018-07-31T18:55:54.344Z,35.35
2018-07-31T18:58:23.465Z,35.64
2018-07-31T19:00:52.610Z,35.14
2018-07-31T19:03:21.665Z,34.97
2018-07-31T19:05:50.787Z,36.18
2018-07-31T19:08:19.880Z,35.46
2018-07-31T19:10:48.994Z,34.71
2018-07-31T19:13:18.145Z,35.67
2018-07-31T19:15:47.242Z,35.08
2018-07-31T19:18:16.356Z,35.91
2018-07-31T19:20:45.461Z,34.87
2018-07-31T19:23:14.593Z,35.56
2018-07-31T19:25:43.705Z,36.40
2018-07-31T19:28:12.951Z,35.33
2018-07-31T19:30:41.974Z,36.50
2018-07-31T19:33:11.084Z,35.85
2018-07-31T19:35:40.189Z,36.53
2018-07-31T19:38:09.345Z,38.03
2018-07-31T19:40:38.457Z,38.07
2018-07-31T19:43:07.709Z,37.11
2018-07-31T19:45:36.837Z,37.63
2018-07-31T19:48:05.946Z,37.46
2018-07-31T19:50:35.029Z,37.77
2018-07-31T19:53:04.157Z,38.27
2018-07-31T19:55:33.261Z,39.23
2018-07-31T19:58:02.412Z,38.49
2018-07-31T20:00:31.565Z,38.65
2018-07-31T20:03:00.693Z,40.02
2018-07-31T20:05:29.809Z,38.71
2018-07-31T20:07:58.933Z,38.18
2018-07-31T20:10:28.084Z,37.85
2018-07-31T20:12:57.165Z,38.12
2018-07-31T20:15:26.315Z,38.39
2018-07-31T20:17:55.408Z,39.30
2018-07-31T20:20:24.549Z,38.99
2018-07-31T20:22:53.650Z,40.51
2018-07-31T20:25:22.773Z,40.09
2018-07-31T20:27:51.868Z,40.88
2018-07-31T20:30:20.997Z,40.50
2018-07-31T20:32:50.289Z,38.63
2018-07-31T20:35:19.498Z,39.88
2018-07-31T20:37:48.625Z,39.20
2018-07-31T20:40:17.750Z,39.32
2018-07-31T20:42:46.914Z,40.37
2018-07-31T20:45:16.130Z,39.38
2018-07-31T20:47:45.789Z,39.75
2018-07-31T20:50:18.271Z,40.70
2018-07-31T20:55:44.493Z,40.51
2018-07-31T20:58:15.649Z,40.35
2018-07-31T21:00:46.793Z,41.32
2018-07-31T21:03:16.521Z,41.94
2018-07-31T21:05:46.887Z,41.65
2018-07-31T21:08:16.250Z,42.74
2018-07-31T21:10:45.374Z,41.65
2018-07-31T21:13:14.534Z,41.94
2018-07-31T21:15:43.701Z,42.29
2018-07-31T21:18:12.892Z,42.78
2018-07-31T21:20:41.994Z,42.28
2018-07-31T21:23:11.205Z,42.96
2018-07-31T21:25:40.319Z,42.29
2018-07-31T21:28:09.438Z,42.90
2018-07-31T21:30:38.629Z,44.05
2018-07-31T21:33:07.768Z,43.60
2018-07-31T21:35:36.927Z,43.91
2018-07-31T21:38:06.922Z,44.93
2018-07-31T21:40:36.080Z,45.17
2018-07-31T21:43:05.277Z,45.25
2018-07-31T21:45:34.411Z,45.43
2018-07-31T21:48:03.613Z,45.12
2018-07-31T21:50:32.629Z,45.03
2018-07-31T21:53:01.813Z,45.36
2018-07-31T21:55:30.965Z,45.57
2018-07-31T21:58:00.240Z,45.59
2018-07-31T22:00:33.989Z,46.01
2018-07-31T22:03:03.108Z,45.98
2018-07-31T22:05:32.239Z,46.46
2018-07-31T22:08:01.379Z,47.00
2018-07-31T22:10:30.522Z,46.35
2018-07-31T22:12:59.625Z,46.92
2018-07-31T22:15:28.722Z,46.96
2018-07-31T22:17:57.846Z,46.54
2018-07-31T22:20:26.975Z,47.09
2018-07-31T22:22:56.097Z,46.96
2018-07-31T22:25:25.286Z,46.84
2018-07-31T22:27:54.445Z,48.15
2018-07-31T22:30:23.625Z,47.76
2018-07-31T22:32:52.777Z,48.28
2018-07-31T22:35:22.648Z,47.73
2018-07-31T22:37:51.793Z,47.86
2018-07-31T22:40:20.962Z,47.90
2018-07-31T22:42:50.216Z,47.81
2018-07-31T22:45:19.357Z,48.33
2018-07-31T22:47:48.567Z,48.41
2018-07-31T22:50:17.651Z,48.22
2018-07-31T22:52:46.855Z,48.59
2018-07-31T22:55:16.046Z,48.38
2018-07-31T22:57:45.165Z,48.85
2018-07-31T23:00:14.325Z,47.54
2018-07-31T23:02:43.455Z,47.99
2018-07-31T23:05:13.201Z,47.88
2018-07-31T23:07:42.353Z,49.07
2018-07-31T23:10:11.436Z,48.64
2018-07-31T23:12:40.547Z,48.86
2018-07-31T23:15:09.677Z,48.48
2018-07-31T23:17:38.810Z,48.54
2018-07-31T23:20:07.913Z,49.25
2018-07-31T23:22:50.981Z,49.58
2018-07-31T23:25:20.267Z,49.61
2018-07-31T23:27:49.388Z,48.54
2018-07-31T23:30:18.537Z,48.46
2018-07-31T23:32:47.658Z,48.89
2018-07-31T23:35:16.767Z,48.43
2018-07-31T23:37:45.876Z,49.20
2018-07-31T23:40:14.990Z,48.77
2018-07-31T23:42:44.145Z,48.49
2018-07-31T23:45:13.273Z,49.22
2018-07-31T23:47:42.384Z,48.94
2018-07-31T23:50:11.521Z,49.00
2018-07-31T23:52:40.645Z,48.65
2018-07-31T23:55:09.769Z,48.91
2018-07-31T23:57:38.924Z,49.08
